Time;durP1;ratioP1;P1;durP2;ratioP2;P2;SDS_P1;SDS_P2;PMS_P1;PMS_P2;Temp;Humidity;BMP_temperature;BMP_pressure;BME280_temperature;BME280_humidity;BME280_pressure;Samples;Min_cycle;Max_cycle;Signal;HPM_P1;HPM_P2
2022/03/04 00:00:58;;;;;;;21.58;9.07;;;4.60;96.50;;;;;;5121811;27;20069;-82
2022/03/04 00:03:24;;;;;;;18.02;7.78;;;4.40;96.60;;;;;;5140017;27;20370;-82
2022/03/04 00:05:49;;;;;;;21.00;8.45;;;4.50;96.80;;;;;;5105169;27;20090;-82
2022/03/04 00:08:15;;;;;;;21.10;9.40;;;4.50;96.80;;;;;;5138985;27;20130;-82
2022/03/04 00:10:41;;;;;;;19.52;8.30;;;4.40;96.80;;;;;;5139197;27;20046;-82
2022/03/04 00:13:07;;;;;;;19.75;8.43;;;4.30;97.00;;;;;;5139043;27;20046;-81
2022/03/04 00:15:33;;;;;;;22.35;8.68;;;4.30;97.00;;;;;;5104793;27;20142;-82
2022/03/04 00:17:59;;;;;;;18.85;8.57;;;4.50;97.20;;;;;;5104810;27;20095;-82
2022/03/04 00:20:25;;;;;;;17.33;8.02;;;4.30;97.00;;;;;;5121953;27;20049;-82
2022/03/04 00:22:50;;;;;;;21.25;9.13;;;4.40;97.00;;;;;;5139013;27;20277;-81
2022/03/04 00:25:18;;;;;;;24.23;10.23;;;4.40;97.00;;;;;;5139416;27;20042;-81
2022/03/04 00:27:44;;;;;;;19.20;8.52;;;4.40;97.10;;;;;;5138732;27;20042;-82
2022/03/04 00:30:10;;;;;;;20.05;8.57;;;4.30;97.10;;;;;;5121553;27;20545;-82
2022/03/04 00:32:36;;;;;;;23.73;9.38;;;4.30;97.10;;;;;;5138257;27;20509;-82
2022/03/04 00:35:04;;;;;;;20.20;9.07;;;4.40;97.10;;;;;;5121559;27;20053;-82
2022/03/04 00:37:30;;;;;;;22.73;9.65;;;4.30;97.00;;;;;;5121494;27;20039;-82
2022/03/04 00:39:55;;;;;;;20.35;9.25;;;4.30;97.10;;;;;;5121555;27;20073;-82
2022/03/04 00:42:21;;;;;;;20.77;8.32;;;4.40;97.10;;;;;;5105039;27;20107;-81
2022/03/04 00:44:47;;;;;;;23.40;9.63;;;4.30;97.00;;;;;;5121394;27;20046;-81
2022/03/04 00:47:13;;;;;;;21.42;8.93;;;4.30;97.00;;;;;;5138006;27;20049;-81
2022/03/04 00:49:38;;;;;;;20.02;8.88;;;4.30;97.10;;;;;;5104031;27;20050;-81
2022/03/04 00:52:04;;;;;;;22.52;8.70;;;4.20;97.00;;;;;;5137820;27;20043;-81
2022/03/04 00:54:30;;;;;;;19.40;8.63;;;4.10;97.10;;;;;;5121114;27;20042;-81
2022/03/04 00:56:56;;;;;;;22.65;9.52;;;4.10;97.20;;;;;;5138012;27;20054;-81
2022/03/04 00:59:21;;;;;;;20.08;8.57;;;4.10;97.20;;;;;;5121019;27;20043;-82
2022/03/04 01:01:47;;;;;;;23.33;8.98;;;4.00;97.30;;;;;;5120996;27;20133;-82
2022/03/04 01:04:13;;;;;;;19.23;8.68;;;4.00;97.30;;;;;;5121014;27;20137;-81
2022/03/04 01:06:39;;;;;;;22.45;9.23;;;4.00;97.30;;;;;;5137896;27;20042;-81
2022/03/04 01:09:05;;;;;;;21.83;9.70;;;3.90;97.40;;;;;;5104057;27;20107;-81
2022/03/04 01:11:32;;;;;;;20.20;8.85;;;3.90;97.40;;;;;;5120744;27;20477;-81
2022/03/04 01:13:58;;;;;;;23.88;9.25;;;3.90;97.40;;;;;;5120779;27;20055;-81
2022/03/04 01:16:24;;;;;;;24.15;10.20;;;3.90;97.40;;;;;;5137936;27;20061;-81
2022/03/04 01:18:50;;;;;;;24.95;10.07;;;3.80;97.50;;;;;;5120697;27;20133;-81
2022/03/04 01:21:15;;;;;;;23.75;10.07;;;3.80;97.70;;;;;;5104047;27;20092;-81
2022/03/04 01:23:41;;;;;;;24.83;10.05;;;3.90;97.70;;;;;;5103684;27;20050;-81
2022/03/04 01:26:07;;;;;;;25.38;10.27;;;3.80;97.50;;;;;;5120496;27;20051;-81
2022/03/04 01:28:33;;;;;;;29.77;11.88;;;3.80;97.60;;;;;;5137627;27;20035;-81
2022/03/04 01:30:59;;;;;;;29.15;11.13;;;3.80;97.70;;;;;;5120356;27;20430;-81
2022/03/04 01:33:25;;;;;;;26.27;11.07;;;3.80;97.70;;;;;;5120496;27;20042;-81
2022/03/04 01:35:50;;;;;;;31.13;11.57;;;3.80;97.70;;;;;;5103640;27;20170;-81
2022/03/04 01:38:16;;;;;;;25.70;10.45;;;3.80;97.70;;;;;;5103517;27;20046;-81
2022/03/04 01:40:42;;;;;;;24.42;10.95;;;3.70;97.70;;;;;;5137360;27;20096;-81
2022/03/04 01:43:07;;;;;;;27.85;11.40;;;3.80;97.80;;;;;;5103221;27;20054;-81
2022/03/04 01:45:33;;;;;;;29.75;12.05;;;3.80;97.70;;;;;;5119950;27;20046;-81
2022/03/04 01:47:59;;;;;;;27.33;11.38;;;3.90;97.70;;;;;;5137312;27;20074;-81
2022/03/04 01:50:25;;;;;;;25.50;10.50;;;4.00;97.40;;;;;;5137052;27;20046;-81
2022/03/04 01:52:51;;;;;;;26.85;10.77;;;4.00;97.40;;;;;;5120118;27;20053;-81
2022/03/04 01:55:16;;;;;;;29.77;11.60;;;4.00;97.40;;;;;;5119450;27;20091;-81
2022/03/04 01:57:42;;;;;;;29.05;11.70;;;4.00;97.30;;;;;;5120282;27;20082;-80
2022/03/04 02:00:10;;;;;;;26.88;10.80;;;4.00;97.40;;;;;;5137165;27;20482;-81
2022/03/04 02:02:36;;;;;;;30.88;11.55;;;3.90;97.00;;;;;;5136610;27;20043;-81
2022/03/04 02:05:03;;;;;;;27.40;11.75;;;3.90;97.00;;;;;;5137499;27;20042;-81
2022/03/04 02:07:29;;;;;;;25.58;11.25;;;4.00;97.10;;;;;;5136904;27;20047;-81
2022/03/04 02:09:54;;;;;;;26.67;10.85;;;4.00;97.00;;;;;;5120187;27;20111;-80
2022/03/04 02:12:20;;;;;;;26.35;10.98;;;3.80;97.10;;;;;;5137032;27;20053;-80
2022/03/04 02:14:46;;;;;;;27.63;11.38;;;3.90;97.10;;;;;;5119970;27;20367;-80
2022/03/04 02:17:12;;;;;;;25.55;10.52;;;3.60;97.20;;;;;;5136287;27;20058;-80
2022/03/04 02:19:37;;;;;;;28.92;12.77;;;3.70;97.30;;;;;;5119664;27;20049;-80
2022/03/04 02:22:04;;;;;;;32.63;11.68;;;3.70;97.30;;;;;;5119867;27;20042;-80
2022/03/04 02:24:32;;;;;;;29.73;11.20;;;3.60;97.40;;;;;;5119899;27;20050;-80
2022/03/04 02:27:00;;;;;;;25.17;11.80;;;3.60;97.50;;;;;;5136438;27;20053;-80
2022/03/04 02:29:27;;;;;;;28.25;12.45;;;3.60;97.40;;;;;;5119826;27;20050;-80
2022/03/04 02:31:53;;;;;;;28.27;11.88;;;3.50;97.40;;;;;;5136739;27;20038;-80
2022/03/04 02:34:20;;;;;;;29.58;12.02;;;3.50;97.40;;;;;;5119629;27;20039;-80
2022/03/04 02:36:47;;;;;;;28.50;11.52;;;3.50;97.50;;;;;;5119665;27;20045;-80
2022/03/04 02:39:13;;;;;;;25.77;11.43;;;3.50;97.60;;;;;;5137072;27;20396;-80
2022/03/04 02:41:39;;;;;;;24.92;10.45;;;3.50;97.60;;;;;;5120472;27;20373;-80
2022/03/04 02:44:10;;;;;;;29.90;11.23;;;3.40;97.60;;;;;;5136665;27;20042;-80
2022/03/04 02:46:36;;;;;;;30.55;11.88;;;3.30;97.60;;;;;;5136764;27;20039;-80
2022/03/04 02:49:03;;;;;;;30.38;11.85;;;3.30;97.60;;;;;;5136936;27;20045;-80
2022/03/04 02:51:29;;;;;;;30.95;11.82;;;3.30;97.70;;;;;;5136707;27;20161;-80
2022/03/04 02:53:55;;;;;;;28.40;11.73;;;3.20;97.80;;;;;;5119657;27;20561;-80
2022/03/04 02:56:21;;;;;;;31.33;12.43;;;3.20;97.80;;;;;;5136637;27;20057;-80
2022/03/04 02:58:46;;;;;;;27.65;11.18;;;3.30;97.90;;;;;;5136656;27;20394;-80
2022/03/04 03:01:13;;;;;;;28.85;11.68;;;3.20;97.70;;;;;;5136275;27;20082;-80
2022/03/04 03:03:38;;;;;;;34.40;13.82;;;3.20;97.80;;;;;;5136610;27;20051;-80
2022/03/04 03:06:05;;;;;;;38.90;13.60;;;3.10;97.80;;;;;;5121638;27;20050;-80
2022/03/04 03:08:31;;;;;;;30.20;11.55;;;3.10;97.90;;;;;;5140290;27;20050;-80
2022/03/04 03:10:57;;;;;;;32.50;13.00;;;2.90;98.00;;;;;;5140506;27;20039;-80
2022/03/04 03:13:23;;;;;;;29.40;11.02;;;3.00;98.10;;;;;;5140262;27;20043;-80
2022/03/04 03:15:49;;;;;;;32.00;12.20;;;3.10;98.10;;;;;;5140016;27;20054;-79
2022/03/04 03:18:16;;;;;;;35.30;13.00;;;3.00;98.10;;;;;;5139676;27;20047;-80
2022/03/04 03:20:41;;;;;;;36.33;13.65;;;2.90;98.10;;;;;;5139963;27;20047;-80
2022/03/04 03:23:08;;;;;;;35.55;13.32;;;2.70;98.30;;;;;;5140080;27;20145;-80
2022/03/04 03:25:33;;;;;;;38.20;13.07;;;2.70;98.30;;;;;;5140011;27;20038;-80
2022/03/04 03:27:59;;;;;;;33.75;13.98;;;2.80;98.40;;;;;;5122745;27;20046;-80
2022/03/04 03:30:26;;;;;;;32.85;12.85;;;2.70;98.40;;;;;;5139995;27;20077;-80
2022/03/04 03:32:51;;;;;;;29.27;12.30;;;2.70;98.40;;;;;;5122506;27;20058;-80
2022/03/04 03:35:17;;;;;;;32.47;13.35;;;2.60;98.40;;;;;;5122723;27;20061;-80
2022/03/04 03:37:43;;;;;;;33.33;12.95;;;2.80;98.50;;;;;;5106463;27;20346;-80
2022/03/04 03:40:10;;;;;;;30.75;13.20;;;2.70;98.40;;;;;;5122718;27;20042;-80
2022/03/04 03:42:37;;;;;;;30.90;12.00;;;2.70;98.40;;;;;;5139682;27;20137;-80
2022/03/04 03:45:04;;;;;;;36.00;13.65;;;2.70;98.30;;;;;;5122477;27;20074;-80
2022/03/04 03:47:30;;;;;;;29.92;12.73;;;2.70;98.30;;;;;;5122160;27;20039;-80
2022/03/04 03:49:56;;;;;;;32.10;12.68;;;2.60;98.30;;;;;;5122413;27;20103;-80
2022/03/04 03:52:22;;;;;;;42.90;15.10;;;2.60;98.50;;;;;;5122042;27;20051;-80
2022/03/04 03:54:48;;;;;;;36.83;13.90;;;2.70;98.40;;;;;;5139510;27;20046;-80
2022/03/04 03:57:13;;;;;;;35.05;14.77;;;2.70;98.40;;;;;;5122446;27;20046;-79
2022/03/04 03:59:39;;;;;;;32.53;14.55;;;2.70;98.40;;;;;;5121971;27;20034;-80
2022/03/04 04:02:05;;;;;;;33.08;13.82;;;2.70;98.40;;;;;;5121888;27;20050;-80
2022/03/04 04:04:34;;;;;;;37.35;14.38;;;2.60;98.50;;;;;;5122124;27;20046;-80
2022/03/04 04:07:09;;;;;;;39.70;15.77;;;2.70;98.50;;;;;;5121869;27;20102;-80
2022/03/04 04:09:35;;;;;;;39.78;14.20;;;2.70;98.40;;;;;;5139195;27;20062;-80
2022/03/04 04:12:01;;;;;;;43.15;17.10;;;2.50;98.60;;;;;;5105104;27;20080;-80
2022/03/04 04:14:28;;;;;;;35.58;14.10;;;2.50;98.80;;;;;;5139064;27;20081;-79
2022/03/04 04:16:55;;;;;;;34.33;13.57;;;2.40;98.70;;;;;;5138159;27;20089;-79
2022/03/04 04:19:22;;;;;;;42.78;14.60;;;2.50;98.80;;;;;;5121884;27;20050;-80
2022/03/04 04:21:48;;;;;;;37.00;14.57;;;2.50;98.80;;;;;;5121568;27;20042;-80
2022/03/04 04:24:13;;;;;;;40.60;15.50;;;2.60;98.80;;;;;;5121931;27;20520;-80
2022/03/04 04:26:39;;;;;;;37.75;14.35;;;2.50;98.60;;;;;;5104607;27;20125;-80
2022/03/04 04:29:05;;;;;;;39.50;15.00;;;2.50;98.90;;;;;;5121400;27;20049;-80
2022/03/04 04:31:32;;;;;;;39.45;14.88;;;2.40;98.90;;;;;;5120965;27;20046;-80
2022/03/04 04:33:59;;;;;;;40.83;16.17;;;2.40;98.90;;;;;;5105008;27;20551;-79
2022/03/04 04:36:25;;;;;;;42.45;16.33;;;2.60;98.90;;;;;;5104918;27;20050;-80
2022/03/04 04:38:51;;;;;;;42.85;15.45;;;2.60;98.80;;;;;;5121480;27;20053;-80
2022/03/04 04:41:17;;;;;;;37.97;14.82;;;2.30;98.80;;;;;;5138628;27;20122;-80
2022/03/04 04:43:43;;;;;;;47.03;16.73;;;2.30;99.00;;;;;;5104361;27;20099;-80
2022/03/04 04:46:08;;;;;;;42.90;16.88;;;2.40;99.00;;;;;;5121156;27;20053;-80
2022/03/04 04:48:34;;;;;;;35.45;14.60;;;2.40;99.00;;;;;;5104049;27;20038;-80
2022/03/04 04:51:00;;;;;;;40.15;14.90;;;2.40;99.00;;;;;;5121045;27;20053;-79
2022/03/04 04:53:30;;;;;;;33.95;14.23;;;2.30;99.00;;;;;;5138298;27;20133;-79
2022/03/04 04:55:55;;;;;;;39.75;15.30;;;2.30;99.10;;;;;;5121548;27;20093;-79
2022/03/04 04:58:21;;;;;;;42.53;14.48;;;2.30;99.20;;;;;;5138298;27;20074;-79
2022/03/04 05:00:53;;;;;;;42.60;16.52;;;2.50;99.10;;;;;;5092610;27;20091;-80
2022/03/04 05:03:22;;;;;;;41.30;15.85;;;2.50;99.10;;;;;;5083745;27;20083;-80
2022/03/04 05:05:49;;;;;;;35.72;15.05;;;2.60;99.00;;;;;;5117535;27;20360;-80
2022/03/04 05:08:16;;;;;;;41.55;15.65;;;2.60;98.90;;;;;;5117134;27;20088;-80
2022/03/04 05:10:42;;;;;;;35.05;14.23;;;2.70;98.80;;;;;;5100362;27;20452;-79
2022/03/04 05:13:07;;;;;;;38.20;15.93;;;2.50;98.90;;;;;;5117252;27;20489;-80
2022/03/04 05:15:33;;;;;;;35.60;14.45;;;2.50;98.90;;;;;;5117881;27;20130;-80
2022/03/04 05:17:59;;;;;;;42.90;16.23;;;2.60;98.90;;;;;;5113024;28;20065;-80
2022/03/04 05:20:25;;;;;;;41.33;16.50;;;2.60;98.80;;;;;;5097252;28;20184;-80
2022/03/04 05:22:50;;;;;;;46.72;16.15;;;2.60;99.00;;;;;;5113650;28;20489;-79
2022/03/04 05:25:16;;;;;;;50.25;17.92;;;2.70;98.70;;;;;;5113713;28;20048;-79
2022/03/04 05:27:42;;;;;;;43.50;17.00;;;2.70;98.70;;;;;;5113409;28;20148;-79
2022/03/04 05:30:08;;;;;;;47.95;17.58;;;2.60;98.70;;;;;;5112738;28;20368;-80
2022/03/04 05:32:34;;;;;;;38.85;14.90;;;2.30;98.90;;;;;;5079387;28;20043;-80
2022/03/04 05:34:59;;;;;;;42.65;15.82;;;2.30;99.10;;;;;;5097285;28;20054;-80
2022/03/04 05:37:25;;;;;;;45.78;16.77;;;2.10;99.10;;;;;;5096636;28;20041;-80
2022/03/04 05:39:52;;;;;;;34.88;15.07;;;2.10;99.30;;;;;;5113395;28;20051;-80
2022/03/04 05:42:18;;;;;;;40.80;16.13;;;2.10;99.30;;;;;;5113563;28;20043;-79
2022/03/04 05:44:44;;;;;;;48.58;17.75;;;2.10;99.40;;;;;;5113584;28;20080;-79
2022/03/04 05:47:10;;;;;;;47.80;15.98;;;2.10;99.20;;;;;;5113222;28;20394;-80
2022/03/04 05:49:36;;;;;;;40.45;15.80;;;2.00;99.30;;;;;;5113341;28;20070;-79
2022/03/04 05:52:03;;;;;;;41.00;16.02;;;1.80;99.40;;;;;;5096399;28;20036;-79
2022/03/04 05:54:28;;;;;;;44.67;16.23;;;1.90;99.70;;;;;;5079579;28;20048;-79
2022/03/04 05:56:54;;;;;;;47.35;18.27;;;2.20;99.60;;;;;;5079378;28;20035;-80
2022/03/04 05:59:20;;;;;;;41.88;17.45;;;2.20;99.40;;;;;;5096498;28;20115;-80
2022/03/04 06:01:45;;;;;;;38.72;15.93;;;2.10;99.20;;;;;;5112502;28;20047;-80
2022/03/04 06:04:11;;;;;;;43.92;17.80;;;2.10;99.30;;;;;;5113165;28;20058;-80
2022/03/04 06:06:37;;;;;;;41.72;16.13;;;2.30;99.40;;;;;;5113026;28;20035;-80
2022/03/04 06:09:02;;;;;;;43.20;17.23;;;2.20;99.30;;;;;;5096317;28;20079;-80
2022/03/04 06:11:28;;;;;;;50.15;18.85;;;2.30;99.30;;;;;;5112945;28;20368;-80
2022/03/04 06:13:54;;;;;;;44.80;18.30;;;2.50;99.30;;;;;;5113172;28;20498;-80
2022/03/04 06:16:22;;;;;;;45.75;19.05;;;2.40;99.10;;;;;;5113988;28;20113;-80
2022/03/04 06:18:48;;;;;;;40.65;16.77;;;2.50;99.20;;;;;;5116659;28;20043;-80
2022/03/04 06:21:14;;;;;;;39.38;16.25;;;2.50;99.10;;;;;;5116058;28;20051;-80
2022/03/04 06:23:40;;;;;;;40.72;16.90;;;2.70;99.10;;;;;;5116263;28;20065;-79
2022/03/04 06:26:05;;;;;;;38.28;16.27;;;2.60;99.00;;;;;;5115846;28;20379;-80
2022/03/04 06:28:31;;;;;;;46.42;17.30;;;2.60;99.00;;;;;;5099037;28;20039;-80
2022/03/04 06:30:57;;;;;;;42.92;18.13;;;2.60;98.90;;;;;;5115530;28;20219;-80
2022/03/04 06:33:36;;;;;;;45.17;18.63;;;2.60;99.00;;;;;;5099477;28;20083;-80
2022/03/04 06:36:06;;;;;;;40.47;17.27;;;2.60;99.00;;;;;;5116656;28;20047;-80
2022/03/04 06:38:39;;;;;;;37.08;16.83;;;2.60;99.10;;;;;;5115878;28;20043;-80
2022/03/04 06:41:05;;;;;;;36.50;16.05;;;2.40;99.10;;;;;;5118783;27;20047;-80
2022/03/04 06:43:32;;;;;;;39.65;16.48;;;2.60;99.10;;;;;;5103542;27;20142;-80
2022/03/04 06:45:58;;;;;;;39.47;16.33;;;2.70;99.00;;;;;;5103245;27;20089;-80
2022/03/04 06:48:23;;;;;;;39.25;17.05;;;2.60;98.90;;;;;;5119788;27;20071;-80
2022/03/04 06:50:50;;;;;;;38.47;16.40;;;2.80;99.00;;;;;;5119863;27;20527;-80
2022/03/04 06:53:16;;;;;;;34.85;15.60;;;2.60;99.00;;;;;;5119750;27;20055;-80
2022/03/04 06:55:42;;;;;;;37.72;14.93;;;2.50;98.90;;;;;;5103069;27;20126;-79
2022/03/04 06:58:08;;;;;;;46.63;16.58;;;2.40;99.00;;;;;;5120199;27;20070;-79
2022/03/04 07:00:34;;;;;;;36.78;15.48;;;2.30;99.10;;;;;;5086014;27;20082;-80
2022/03/04 07:02:59;;;;;;;39.70;16.10;;;2.30;99.20;;;;;;5102363;27;20047;-80
2022/03/04 07:05:25;;;;;;;45.67;17.13;;;2.30;99.30;;;;;;5086037;27;20089;-79
2022/03/04 07:07:53;;;;;;;41.90;15.68;;;2.20;99.20;;;;;;5085442;27;20043;-79
2022/03/04 07:10:19;;;;;;;46.05;17.42;;;2.10;99.30;;;;;;5102714;27;20133;-80
2022/03/04 07:12:46;;;;;;;40.20;16.55;;;2.20;99.60;;;;;;5119566;27;20050;-79
2022/03/04 07:15:12;;;;;;;39.95;16.50;;;2.20;99.50;;;;;;5119427;27;20511;-79
2022/03/04 07:17:37;;;;;;;37.63;16.13;;;2.00;99.50;;;;;;5119281;27;20090;-79
2022/03/04 07:20:05;;;;;;;39.55;15.85;;;2.10;99.50;;;;;;5085685;27;20070;-79
2022/03/04 07:22:30;;;;;;;42.95;17.13;;;2.00;99.70;;;;;;5119351;27;20043;-79
2022/03/04 07:24:56;;;;;;;39.80;15.95;;;2.20;99.80;;;;;;5085558;27;20051;-79
2022/03/04 07:27:21;;;;;;;39.47;16.25;;;2.20;99.70;;;;;;5119139;27;20126;-79
2022/03/04 07:29:47;;;;;;;42.97;16.75;;;2.30;99.60;;;;;;5102335;27;20043;-79
2022/03/04 07:32:13;;;;;;;40.97;17.08;;;2.50;99.70;;;;;;5101369;27;20498;-79
2022/03/04 07:34:39;;;;;;;39.58;16.50;;;2.70;99.50;;;;;;5085456;27;20047;-79
2022/03/04 07:37:05;;;;;;;40.97;16.30;;;2.70;99.30;;;;;;5119305;27;20143;-79
2022/03/04 07:39:31;;;;;;;42.72;19.02;;;2.60;99.20;;;;;;5102591;27;20078;-79
2022/03/04 07:41:57;;;;;;;37.78;16.05;;;2.80;99.10;;;;;;5102230;27;20058;-79
2022/03/04 07:44:23;;;;;;;39.45;16.65;;;2.60;99.20;;;;;;5085438;27;20367;-78
2022/03/04 07:46:49;;;;;;;36.25;15.88;;;2.40;99.20;;;;;;5118971;27;20046;-81
2022/03/04 07:49:15;;;;;;;38.67;16.70;;;2.50;99.40;;;;;;5119332;27;20043;-76
2022/03/04 07:51:41;;;;;;;38.45;15.13;;;2.50;99.30;;;;;;5117651;27;20104;-78
2022/03/04 07:54:07;;;;;;;35.20;15.70;;;2.40;99.30;;;;;;5119212;27;20079;-75
2022/03/04 07:56:33;;;;;;;39.00;15.38;;;2.20;99.30;;;;;;5101980;27;20058;-75
2022/03/04 07:58:59;;;;;;;40.88;16.50;;;2.20;99.50;;;;;;5118874;27;20375;-75
2022/03/04 08:01:25;;;;;;;38.63;16.10;;;2.20;99.50;;;;;;5118606;27;20130;-76
2022/03/04 08:03:50;;;;;;;37.17;15.77;;;2.30;99.60;;;;;;5119075;27;20043;-75
2022/03/04 08:06:16;;;;;;;43.92;16.55;;;2.50;99.60;;;;;;5118385;27;20054;-75
2022/03/04 08:08:42;;;;;;;38.20;14.10;;;2.70;99.50;;;;;;5118657;27;20039;-76
2022/03/04 08:11:07;;;;;;;35.65;15.77;;;2.80;99.20;;;;;;5136774;27;20394;-74
2022/03/04 08:13:34;;;;;;;38.75;14.77;;;2.90;99.00;;;;;;5124247;27;20072;-74
2022/03/04 08:16:00;;;;;;;31.58;14.27;;;2.90;99.00;;;;;;5123745;27;20055;-74
2022/03/04 08:18:26;;;;;;;33.58;14.73;;;3.00;98.80;;;;;;5100784;27;20051;-71
2022/03/04 08:20:53;;;;;;;34.55;15.57;;;2.90;98.90;;;;;;5118098;27;20133;-72
2022/03/04 08:23:19;;;;;;;30.77;13.82;;;3.00;99.10;;;;;;5118163;27;20046;-71
2022/03/04 08:25:44;;;;;;;30.73;13.65;;;3.00;99.00;;;;;;5101232;27;20043;-71
2022/03/04 08:28:10;;;;;;;35.08;15.95;;;3.00;98.80;;;;;;5117964;27;20134;-72
2022/03/04 08:30:36;;;;;;;30.60;14.25;;;3.00;98.80;;;;;;5101046;27;20078;-71
2022/03/04 08:33:02;;;;;;;35.58;14.43;;;3.00;98.90;;;;;;5100588;27;20092;-71
2022/03/04 08:35:28;;;;;;;33.78;14.77;;;3.10;98.90;;;;;;5101856;27;20039;-74
2022/03/04 08:37:54;;;;;;;34.42;14.55;;;3.00;98.70;;;;;;5102500;27;20096;-74
2022/03/04 08:40:19;;;;;;;34.47;15.07;;;3.00;98.80;;;;;;5117871;27;20424;-75
2022/03/04 08:42:45;;;;;;;32.08;14.43;;;3.10;98.80;;;;;;5136096;27;20043;-74
2022/03/04 08:45:13;;;;;;;29.95;13.18;;;3.20;98.70;;;;;;5117574;27;20055;-74
2022/03/04 08:47:41;;;;;;;34.80;14.32;;;3.30;98.60;;;;;;5117611;27;20432;-74
2022/03/04 08:50:08;;;;;;;27.83;13.50;;;3.30;98.60;;;;;;5115326;27;20057;-74
2022/03/04 08:52:34;;;;;;;36.75;15.25;;;3.10;98.50;;;;;;5087903;27;20557;-74
2022/03/04 08:55:00;;;;;;;39.78;15.85;;;3.10;98.60;;;;;;5117061;27;20126;-74
2022/03/04 08:57:26;;;;;;;37.47;15.48;;;3.20;98.60;;;;;;5100674;27;20055;-74
2022/03/04 08:59:52;;;;;;;35.50;14.45;;;3.00;98.60;;;;;;5136026;27;20043;-72
2022/03/04 09:02:17;;;;;;;33.45;14.82;;;3.00;98.60;;;;;;5120373;27;20046;-73
2022/03/04 09:04:43;;;;;;;34.20;15.20;;;3.00;98.70;;;;;;5145137;27;20051;-73
2022/03/04 09:07:09;;;;;;;36.42;15.10;;;3.20;98.90;;;;;;5117004;27;20385;-73
2022/03/04 09:09:35;;;;;;;32.33;13.82;;;3.10;98.70;;;;;;5117081;27;20047;-74
2022/03/04 09:12:01;;;;;;;36.55;15.30;;;3.10;98.70;;;;;;5100239;27;20043;-74
2022/03/04 09:14:27;;;;;;;38.15;16.67;;;3.30;98.70;;;;;;5100244;27;20074;-74
2022/03/04 09:16:53;;;;;;;37.22;15.80;;;3.40;98.60;;;;;;5117165;27;20051;-74
2022/03/04 09:19:19;;;;;;;39.72;16.08;;;3.40;98.40;;;;;;5112700;28;20056;-73
2022/03/04 09:21:47;;;;;;;33.55;15.48;;;3.50;98.60;;;;;;5112832;27;20059;-71
2022/03/04 09:24:13;;;;;;;35.55;15.85;;;3.70;98.60;;;;;;5099246;28;20457;-71
2022/03/04 09:26:39;;;;;;;33.22;15.35;;;3.80;98.40;;;;;;5113825;28;20474;-71
2022/03/04 09:29:05;;;;;;;34.65;15.43;;;3.70;98.20;;;;;;5113677;28;20100;-71
2022/03/04 09:31:31;;;;;;;34.65;16.20;;;3.80;98.30;;;;;;5113255;28;20096;-70
2022/03/04 09:33:57;;;;;;;32.85;15.35;;;3.80;98.10;;;;;;5113534;28;20391;-71
2022/03/04 09:36:23;;;;;;;34.67;15.20;;;4.00;98.40;;;;;;5113708;27;20047;-73
2022/03/04 09:38:48;;;;;;;30.98;15.40;;;4.20;98.20;;;;;;5116867;27;20424;-74
2022/03/04 09:41:14;;;;;;;29.70;13.52;;;4.30;98.10;;;;;;5125820;27;20060;-73
2022/03/04 09:43:41;;;;;;;32.67;14.57;;;4.30;97.80;;;;;;5110355;28;20387;-74
2022/03/04 09:46:07;;;;;;;29.40;14.30;;;4.00;98.00;;;;;;5113170;28;20127;-75
2022/03/04 09:48:39;;;;;;;32.70;15.38;;;4.30;98.20;;;;;;5113453;28;20043;-75
2022/03/04 09:51:06;;;;;;;28.98;14.63;;;4.40;97.50;;;;;;5113692;28;20087;-71
2022/03/04 09:53:32;;;;;;;30.45;14.05;;;4.30;97.80;;;;;;5096332;28;20079;-73
2022/03/04 09:55:58;;;;;;;26.88;13.30;;;4.40;97.50;;;;;;5096310;28;20144;-73
2022/03/04 09:58:24;;;;;;;28.67;13.35;;;4.40;97.50;;;;;;5113284;28;20051;-73
2022/03/04 10:00:49;;;;;;;28.80;13.85;;;4.50;97.40;;;;;;5114311;28;20047;-73
2022/03/04 10:03:41;;;;;;;30.55;14.60;;;4.70;97.30;;;;;;5112735;28;20054;-74
2022/03/04 10:06:07;;;;;;;31.00;15.00;;;4.90;97.40;;;;;;5113247;28;20054;-74
2022/03/04 10:08:40;;;;;;;32.65;14.32;;;4.90;97.00;;;;;;5114238;28;20051;-73
2022/03/04 10:11:07;;;;;;;29.98;14.70;;;5.00;97.00;;;;;;5096302;28;20134;-74
2022/03/04 10:13:44;;;;;;;31.45;15.15;;;5.20;97.00;;;;;;5113075;28;20052;-74
2022/03/04 10:16:22;;;;;;;28.63;13.80;;;5.30;96.80;;;;;;5118416;28;20051;-74
2022/03/04 10:19:03;;;;;;;31.63;15.43;;;5.20;97.10;;;;;;5102594;28;20059;-74
2022/03/04 10:21:44;;;;;;;27.58;13.70;;;5.40;97.20;;;;;;5120233;28;20051;-74
2022/03/04 10:24:10;;;;;;;24.38;12.65;;;5.50;96.30;;;;;;5120006;28;20126;-74
2022/03/04 10:26:36;;;;;;;28.05;14.07;;;5.60;96.30;;;;;;5119335;28;20159;-73
2022/03/04 10:29:22;;;;;;;24.13;12.50;;;5.90;96.20;;;;;;5119756;28;20046;-73
2022/03/04 10:32:20;;;;;;;26.63;13.13;;;6.10;95.80;;;;;;5119219;27;20044;-70
2022/03/04 10:34:55;;;;;;;26.95;13.32;;;6.30;95.60;;;;;;5119479;28;20086;-74
2022/03/04 10:37:37;;;;;;;24.70;12.40;;;6.40;95.60;;;;;;5119790;28;20055;-73
2022/03/04 10:40:08;;;;;;;27.70;13.40;;;6.40;95.40;;;;;;5119808;28;20047;-71
2022/03/04 10:42:57;;;;;;;24.42;12.38;;;6.70;95.70;;;;;;5119199;28;20486;-73
2022/03/04 10:45:24;;;;;;;21.63;11.98;;;6.90;95.20;;;;;;5120342;28;20047;-73
2022/03/04 10:47:54;;;;;;;21.77;12.30;;;6.90;94.90;;;;;;5121629;28;20509;-70
2022/03/04 10:50:25;;;;;;;27.80;13.07;;;6.90;94.90;;;;;;5102500;28;20047;-72
2022/03/04 10:52:52;;;;;;;22.92;12.25;;;7.00;95.30;;;;;;5119548;28;20138;-71
2022/03/04 10:55:30;;;;;;;23.50;12.45;;;6.90;94.90;;;;;;5119827;28;20491;-72
2022/03/04 10:58:01;;;;;;;23.25;13.07;;;7.10;94.80;;;;;;5119580;28;20044;-72
2022/03/04 11:00:35;;;;;;;23.90;12.77;;;7.30;94.90;;;;;;5119549;28;20055;-72
2022/03/04 11:03:02;;;;;;;25.88;13.48;;;7.50;94.30;;;;;;5101913;28;20086;-72
2022/03/04 11:05:28;;;;;;;23.38;12.73;;;7.60;94.50;;;;;;5119541;28;20053;-72
2022/03/04 11:07:54;;;;;;;23.58;12.77;;;7.90;94.40;;;;;;5119251;28;20052;-69
2022/03/04 11:10:21;;;;;;;22.38;11.98;;;8.40;93.90;;;;;;5102428;28;20047;-73
2022/03/04 11:12:50;;;;;;;20.63;11.60;;;8.50;94.00;;;;;;5119479;28;20390;-73
2022/03/04 11:15:17;;;;;;;20.80;11.38;;;8.90;93.30;;;;;;5119406;28;20048;-73
2022/03/04 11:17:45;;;;;;;20.85;11.50;;;9.20;93.20;;;;;;5119895;27;20056;-73
2022/03/04 11:20:12;;;;;;;20.83;11.25;;;9.30;92.80;;;;;;5119162;28;20126;-74
2022/03/04 11:22:43;;;;;;;22.40;11.70;;;9.40;92.20;;;;;;5119538;28;20051;-74
2022/03/04 11:25:12;;;;;;;19.60;11.18;;;9.30;92.30;;;;;;5102673;28;20062;-73
2022/03/04 11:27:45;;;;;;;23.80;11.88;;;9.40;92.50;;;;;;5099571;28;20040;-74
2022/03/04 11:30:33;;;;;;;22.92;11.18;;;9.60;92.20;;;;;;5116082;28;20391;-74
2022/03/04 11:33:26;;;;;;;21.85;11.27;;;9.80;92.00;;;;;;5115396;28;20051;-74
2022/03/04 11:35:59;;;;;;;22.17;11.07;;;9.70;91.90;;;;;;5115129;28;20211;-75
2022/03/04 11:38:44;;;;;;;20.65;11.90;;;10.20;91.60;;;;;;5099711;28;20048;-75
2022/03/04 11:41:11;;;;;;;23.73;11.68;;;10.30;91.40;;;;;;5115745;28;20122;-74
2022/03/04 11:44:10;;;;;;;17.95;10.85;;;10.50;91.40;;;;;;5116034;28;20050;-76
2022/03/04 11:47:02;;;;;;;21.88;11.82;;;10.20;91.30;;;;;;5115705;28;20534;-73
2022/03/04 11:49:44;;;;;;;20.38;11.45;;;10.10;91.50;;;;;;5116653;28;20040;-75
2022/03/04 11:52:10;;;;;;;21.23;12.50;;;10.60;91.10;;;;;;5115559;28;20040;-73
2022/03/04 11:54:44;;;;;;;21.90;12.40;;;10.70;91.00;;;;;;5115682;28;20043;-74
2022/03/04 11:57:19;;;;;;;20.55;10.75;;;10.70;90.90;;;;;;5117319;28;20044;-73
2022/03/04 11:59:49;;;;;;;20.75;11.82;;;11.10;90.70;;;;;;5116811;28;20066;-82
2022/03/04 12:02:29;;;;;;;19.67;11.75;;;11.40;90.60;;;;;;5115360;28;20100;-81
2022/03/04 12:05:19;;;;;;;23.60;12.73;;;11.80;90.00;;;;;;5116329;28;20059;-81
2022/03/04 12:08:05;;;;;;;21.30;11.75;;;11.70;90.00;;;;;;5115342;28;20126;-81
2022/03/04 12:10:44;;;;;;;21.63;12.48;;;11.80;90.00;;;;;;5114894;28;20146;-82
2022/03/04 12:13:18;;;;;;;27.75;16.92;;;12.20;89.40;;;;;;5115301;28;20440;-77
2022/03/04 12:15:55;;;;;;;22.80;13.00;;;12.20;89.10;;;;;;5115178;28;20467;-75
2022/03/04 12:18:31;;;;;;;24.63;12.95;;;12.10;88.60;;;;;;5114968;28;20056;-75
2022/03/04 12:21:24;;;;;;;24.80;13.50;;;12.20;89.20;;;;;;5115034;28;20048;-81
2022/03/04 12:23:52;;;;;;;23.33;13.45;;;12.60;88.70;;;;;;5114833;28;20140;-76
2022/03/04 12:26:22;;;;;;;22.83;13.52;;;12.30;88.40;;;;;;5114937;28;20047;-76
2022/03/04 12:29:00;;;;;;;28.38;16.98;;;12.20;87.60;;;;;;5114697;28;20100;-77
2022/03/04 12:31:26;;;;;;;25.60;13.65;;;12.10;87.40;;;;;;5097526;28;20118;-77
2022/03/04 12:33:55;;;;;;;22.42;13.10;;;12.10;89.00;;;;;;5114821;28;20052;-72
2022/03/04 12:36:22;;;;;;;31.73;17.35;;;12.40;88.60;;;;;;5119498;28;20090;-74
2022/03/04 12:38:55;;;;;;;22.60;12.98;;;12.30;87.00;;;;;;5097103;28;20433;-76
2022/03/04 12:41:25;;;;;;;22.38;13.23;;;12.80;86.90;;;;;;5114762;28;20055;-78